createdAt,value
2019-03-12T00:01:15.702Z,101730.70
2019-03-12T00:03:46.785Z,101729.92
2019-03-12T00:06:17.008Z,101728.44
2019-03-12T00:08:47.711Z,101730.27
2019-03-12T00:11:17.967Z,101734.18
2019-03-12T00:13:52.951Z,101735.25
2019-03-12T00:16:25.441Z,101735.44
2019-03-12T00:18:55.600Z,101736.28
2019-03-12T00:21:28.117Z,101736.56
2019-03-12T00:24:00.575Z,101741.86
2019-03-12T00:26:30.735Z,101739.70
2019-03-12T00:29:02.643Z,101743.13
2019-03-12T00:31:34.235Z,101740.17
2019-03-12T00:34:04.359Z,101741.95
2019-03-12T00:36:36.207Z,101743.65
2019-03-12T00:39:07.139Z,101732.48
2019-03-12T00:41:39.520Z,101735.81
2019-03-12T00:44:11.414Z,101741.30
2019-03-12T00:46:41.613Z,101740.97
2019-03-12T00:49:11.754Z,101738.02
2019-03-12T00:51:41.934Z,101739.70
2019-03-12T00:54:13.117Z,101741.46
2019-03-12T00:56:46.076Z,101741.77
2019-03-12T00:59:16.191Z,101743.55
2019-03-12T01:01:48.464Z,101745.19
2019-03-12T01:04:20.717Z,101738.14
2019-03-12T01:06:50.873Z,101741.67
2019-03-12T01:09:25.642Z,101738.16
2019-03-12T01:11:55.827Z,101735.02
2019-03-12T01:14:25.915Z,101740.05
2019-03-12T01:16:57.595Z,101743.13
2019-03-12T01:19:28.706Z,101748.10
2019-03-12T01:22:02.117Z,101741.08
2019-03-12T01:24:32.381Z,101742.98
2019-03-12T01:27:02.913Z,101737.88
2019-03-12T01:29:33.096Z,101750.11
2019-03-12T01:32:03.206Z,101749.34
2019-03-12T01:34:33.570Z,101750.57
2019-03-12T01:37:03.882Z,101746.97
2019-03-12T01:39:34.020Z,101749.13
2019-03-12T01:42:04.105Z,101745.36
2019-03-12T01:44:45.772Z,101745.31
2019-03-12T01:47:21.162Z,101751.47
2019-03-12T01:49:51.347Z,101744.38
2019-03-12T01:52:27.294Z,101747.43
2019-03-12T01:54:57.428Z,101742.53
2019-03-12T01:57:27.635Z,101746.61
2019-03-12T01:59:57.771Z,101739.50
2019-03-12T02:02:31.759Z,101743.88
2019-03-12T02:05:02.392Z,101744.24
2019-03-12T02:07:32.584Z,101755.55
2019-03-12T02:10:02.732Z,101741.64
2019-03-12T02:12:33.362Z,101745.11
2019-03-12T02:15:03.652Z,101738.34
2019-03-12T02:17:34.828Z,101734.14
2019-03-12T02:20:05.864Z,101729.05
2019-03-12T02:22:36.117Z,101724.48
2019-03-12T02:25:07.891Z,101725.30
2019-03-12T02:27:38.061Z,101716.39
2019-03-12T02:30:10.281Z,101710.12
2019-03-12T02:32:44.304Z,101714.48
2019-03-12T02:35:12.406Z,101721.67
2019-03-12T02:37:42.515Z,101718.14
2019-03-12T02:40:13.351Z,101710.73
2019-03-12T02:42:46.573Z,101715.37
2019-03-12T02:45:17.735Z,101703.53
2019-03-12T02:47:50.027Z,101704.17
2019-03-12T02:50:20.171Z,101708.36
2019-03-12T02:52:52.597Z,101705.56
2019-03-12T02:55:22.736Z,101699.44
2019-03-12T02:57:52.878Z,101697.17
2019-03-12T03:00:23.587Z,101697.23
2019-03-12T03:02:53.867Z,101699.41
2019-03-12T03:05:24.061Z,101702.09
2019-03-12T03:07:59.475Z,101705.18
2019-03-12T03:10:32.464Z,101696.81
2019-03-12T03:13:02.594Z,101694.37
2019-03-12T03:15:41.998Z,101696.54
2019-03-12T03:18:12.153Z,101697.64
2019-03-12T03:20:42.303Z,101706.58
2019-03-12T03:23:12.451Z,101705.22
2019-03-12T03:25:42.595Z,101704.37
2019-03-12T03:28:15.049Z,101700.21
2019-03-12T03:30:45.196Z,101711.05
2019-03-12T03:33:15.358Z,101709.79
2019-03-12T03:35:46.152Z,101703.69
2019-03-12T03:38:16.698Z,101707.98
2019-03-12T03:40:46.843Z,101699.14
2019-03-12T03:43:16.951Z,101702.87
2019-03-12T03:45:47.124Z,101708.97
2019-03-12T03:48:17.296Z,101713.27
2019-03-12T03:50:49.126Z,101714.81
2019-03-12T03:53:19.364Z,101712.09
2019-03-12T03:55:49.472Z,101711.95
2019-03-12T04:01:31.916Z,101716.09
2019-03-12T04:04:02.060Z,101708.73
2019-03-12T04:06:34.207Z,101707.06
2019-03-12T04:09:05.395Z,101704.54
2019-03-12T04:11:37.148Z,101704.34
2019-03-12T04:14:11.717Z,101701.56
2019-03-12T04:16:43.519Z,101696.32
2019-03-12T04:19:13.693Z,101697.44
2019-03-12T04:21:43.907Z,101693.83
2019-03-12T04:24:14.172Z,101688.58
2019-03-12T04:26:44.749Z,101685.95
2019-03-12T04:29:19.393Z,101692.40
2019-03-12T04:32:02.011Z,101691.70
2019-03-12T04:34:38.615Z,101686.90
2019-03-12T04:37:08.864Z,101691.18
2019-03-12T04:39:39.037Z,101683.60
2019-03-12T04:42:12.460Z,101681.89
2019-03-12T04:44:50.366Z,101689.58
2019-03-12T04:47:24.174Z,101685.95
2019-03-12T04:49:54.507Z,101684.84
2019-03-12T04:52:24.687Z,101682.53
2019-03-12T04:54:54.849Z,101690.55
2019-03-12T04:57:24.992Z,101684.72
2019-03-12T05:00:03.544Z,101681.52
2019-03-12T05:02:37.679Z,101682.88
2019-03-12T05:05:08.086Z,101679.50
2019-03-12T05:07:38.224Z,101683.91
2019-03-12T05:10:10.026Z,101685.06
2019-03-12T05:12:40.556Z,101686.71
2019-03-12T05:15:17.381Z,101686.65
2019-03-12T05:17:48.737Z,101687.09
2019-03-12T05:20:18.906Z,101682.61
2019-03-12T05:22:49.185Z,101689.14
2019-03-12T05:25:19.299Z,101677.69
2019-03-12T05:27:49.551Z,101669.39
2019-03-12T05:30:23.620Z,101663.19
2019-03-12T05:32:56.197Z,101655.13
2019-03-12T05:35:26.420Z,101654.80
2019-03-12T05:37:56.812Z,101655.84
2019-03-12T05:40:27.063Z,101654.16
2019-03-12T05:42:57.846Z,101663.33
2019-03-12T05:45:28.689Z,101660.52
2019-03-12T05:48:04.564Z,101659.58
2019-03-12T05:50:35.129Z,101660.95
2019-03-12T05:53:14.875Z,101654.00
2019-03-12T05:55:44.944Z,101645.20
2019-03-12T05:58:16.334Z,101639.16
2019-03-12T06:00:46.462Z,101638.25
2019-03-12T06:03:16.616Z,101627.37
2019-03-12T06:05:46.745Z,101633.61
2019-03-12T06:08:16.900Z,101623.91
2019-03-12T06:10:47.240Z,101628.55
2019-03-12T06:13:19.188Z,101620.05
2019-03-12T06:15:49.332Z,101613.98
2019-03-12T06:18:19.484Z,101615.61
2019-03-12T06:20:49.578Z,101612.46
2019-03-12T06:23:21.526Z,101613.48
2019-03-12T06:25:52.449Z,101618.62
2019-03-12T06:28:31.054Z,101609.25
2019-03-12T06:31:31.217Z,101616.88
2019-03-12T06:34:11.320Z,101618.77
2019-03-12T06:37:02.867Z,101612.42
2019-03-12T06:46:10.115Z,101602.50
2019-03-12T06:49:00.699Z,101608.70
2019-03-12T06:52:05.696Z,101597.91
2019-03-12T06:55:27.102Z,101600.86
2019-03-12T06:58:45.285Z,101596.64
2019-03-12T07:01:41.787Z,101586.90
2019-03-12T07:04:20.949Z,101581.38
2019-03-12T07:07:22.424Z,101578.25
2019-03-12T07:10:05.148Z,101576.25
2019-03-12T07:12:52.454Z,101571.67
2019-03-12T07:15:41.013Z,101569.17
2019-03-12T07:22:13.103Z,101569.25
2019-03-12T07:24:57.783Z,101563.19
2019-03-12T07:27:45.707Z,101563.84
2019-03-12T07:30:44.103Z,101556.19
2019-03-12T07:33:42.538Z,101548.63
2019-03-12T07:36:34.908Z,101550.23
2019-03-12T07:39:29.447Z,101542.39
2019-03-12T07:42:08.595Z,101538.19
2019-03-12T07:45:03.807Z,101531.67
2019-03-12T07:48:00.281Z,101528.13
2019-03-12T07:51:01.285Z,101514.09
2019-03-12T07:53:59.283Z,101505.03
2019-03-12T07:56:38.551Z,101505.42
2019-03-12T07:59:26.639Z,101497.61
2019-03-12T08:02:15.821Z,101489.02
2019-03-12T08:05:03.166Z,101494.41
2019-03-12T08:07:52.353Z,101483.59
2019-03-12T08:10:27.933Z,101484.39
2019-03-12T08:13:24.581Z,101478.48
2019-03-12T08:16:01.844Z,101469.20
2019-03-12T08:18:51.059Z,101463.01
2019-03-12T08:21:40.583Z,101466.46
2019-03-12T08:24:44.805Z,101462.23
2019-03-12T08:27:33.112Z,101454.81
2019-03-12T08:30:25.388Z,101452.64
2019-03-12T08:33:18.908Z,101449.06
2019-03-12T08:36:11.791Z,101439.54
2019-03-12T08:39:09.213Z,101439.62
2019-03-12T08:41:53.263Z,101431.25
2019-03-12T08:44:47.423Z,101422.95
2019-03-12T08:47:41.160Z,101412.42
2019-03-12T08:50:27.496Z,101411.62
2019-03-12T08:53:09.146Z,101406.41
2019-03-12T08:55:56.825Z,101404.67
2019-03-12T08:58:51.807Z,101398.91
2019-03-12T09:01:47.694Z,101393.22
2019-03-12T09:04:40.162Z,101381.84
2019-03-12T09:07:41.972Z,101371.75
2019-03-12T09:10:40.289Z,101363.00
2019-03-12T09:13:22.930Z,101353.78
2019-03-12T09:16:21.071Z,101348.52
2019-03-12T09:19:08.918Z,101339.26
2019-03-12T09:21:59.206Z,101335.27
2019-03-12T09:24:51.809Z,101324.64
2019-03-12T09:27:41.144Z,101322.43
2019-03-12T09:30:30.414Z,101318.05
2019-03-12T09:33:21.133Z,101311.47
2019-03-12T09:36:07.042Z,101292.17
2019-03-12T09:38:56.951Z,101284.62
2019-03-12T09:41:52.017Z,101297.80
2019-03-12T09:44:45.048Z,101289.42
2019-03-12T09:47:21.210Z,101285.46
2019-03-12T09:50:11.448Z,101280.20
2019-03-12T09:52:59.225Z,101272.67
2019-03-12T09:55:54.459Z,101275.27
2019-03-12T09:58:43.684Z,101266.46
2019-03-12T10:01:38.630Z,101263.31
2019-03-12T10:04:30.595Z,101256.23
2019-03-12T10:07:29.075Z,101246.03
2019-03-12T10:10:14.193Z,101245.51
2019-03-12T10:13:06.080Z,101232.77
2019-03-12T10:16:07.298Z,101224.84
2019-03-12T10:18:55.427Z,101230.20
2019-03-12T10:21:44.494Z,101218.66
2019-03-12T10:24:48.322Z,101210.31
2019-03-12T10:27:28.524Z,101203.61
2019-03-12T10:30:23.720Z,101204.92
2019-03-12T10:33:25.244Z,101195.98
2019-03-12T10:36:17.922Z,101195.17
2019-03-12T10:42:41.049Z,101177.05
2019-03-12T10:45:40.690Z,101174.78
2019-03-12T10:48:11.675Z,101167.08
2019-03-12T10:50:49.323Z,101166.31
2019-03-12T10:53:23.102Z,101157.77
2019-03-12T10:55:56.201Z,101140.21
2019-03-12T10:58:30.165Z,101139.78
2019-03-12T11:01:00.411Z,101134.13
2019-03-12T11:03:33.985Z,101131.81
2019-03-12T11:06:06.933Z,101125.16
2019-03-12T11:08:39.192Z,101126.23
2019-03-12T11:11:22.435Z,101107.23
2019-03-12T11:13:53.078Z,101106.14
2019-03-12T11:16:23.253Z,101092.66
2019-03-12T11:18:55.562Z,101088.72
2019-03-12T11:21:25.997Z,101092.13
2019-03-12T11:24:01.614Z,101083.26
2019-03-12T11:26:35.837Z,101075.70
2019-03-12T11:29:06.935Z,101069.16
2019-03-12T11:31:42.185Z,101068.27
2019-03-12T11:34:13.261Z,101065.00
2019-03-12T11:36:59.397Z,101062.99
2019-03-12T11:42:41.896Z,101057.80
2019-03-12T11:48:12.329Z,101045.45
2019-03-12T11:50:47.187Z,101028.12
2019-03-12T11:53:19.950Z,101019.13
2019-03-12T11:56:02.734Z,100999.95
2019-03-12T11:58:57.480Z,100983.81
2019-03-12T12:02:03.772Z,100969.08
2019-03-12T12:04:52.864Z,100961.65
2019-03-12T12:07:35.608Z,100937.92
2019-03-12T12:10:08.105Z,100942.44
2019-03-12T12:12:42.808Z,100932.59
2019-03-12T12:15:33.219Z,100923.22
2019-03-12T12:21:26.996Z,100917.84
2019-03-12T12:24:09.712Z,100909.45
2019-03-12T12:26:49.620Z,100906.34
2019-03-12T12:29:23.557Z,100899.72
2019-03-12T12:31:59.419Z,100891.95
2019-03-12T12:34:31.605Z,100872.26
2019-03-12T12:37:25.154Z,100869.61
2019-03-12T12:40:00.106Z,100865.67
2019-03-12T12:42:32.589Z,100863.69
2019-03-12T12:45:03.794Z,100847.58
2019-03-12T12:47:39.425Z,100841.27
2019-03-12T12:50:13.336Z,100837.18
2019-03-12T12:52:46.084Z,100833.51
2019-03-12T12:55:20.079Z,100826.52
2019-03-12T12:57:54.200Z,100810.30
2019-03-12T13:00:29.074Z,100814.23
2019-03-12T13:03:03.460Z,100802.75
2019-03-12T13:05:43.687Z,100799.52
2019-03-12T13:08:15.476Z,100784.47
2019-03-12T13:10:51.154Z,100781.23
2019-03-12T13:13:24.934Z,100757.02
2019-03-12T13:15:56.965Z,100759.25
2019-03-12T13:18:27.136Z,100753.56
2019-03-12T13:20:57.902Z,100740.38
2019-03-12T13:23:28.170Z,100738.00
2019-03-12T13:26:00.086Z,100734.79
2019-03-12T13:28:36.200Z,100717.18
2019-03-12T13:31:08.539Z,100718.08
2019-03-12T13:33:38.841Z,100703.61
2019-03-12T13:36:14.178Z,100697.27
2019-03-12T13:38:47.705Z,100701.92
2019-03-12T13:41:29.212Z,100687.59
2019-03-12T13:44:15.140Z,100691.66
2019-03-12T13:46:45.437Z,100682.73
2019-03-12T13:49:16.092Z,100674.80
2019-03-12T13:51:46.234Z,100672.31
2019-03-12T13:54:17.195Z,100677.97
2019-03-12T13:56:53.177Z,100655.91
2019-03-12T13:59:47.978Z,100653.42
2019-03-12T14:02:18.404Z,100648.11
2019-03-12T14:04:48.810Z,100629.39
2019-03-12T14:07:19.176Z,100618.87
2019-03-12T14:09:49.362Z,100610.23
2019-03-12T14:12:21.582Z,100595.82
2019-03-12T14:14:51.876Z,100597.80
2019-03-12T14:17:23.040Z,100591.41
2019-03-12T14:19:56.008Z,100579.30
2019-03-12T14:22:29.382Z,100571.39
2019-03-12T14:25:01.210Z,100566.20
2019-03-12T14:27:34.250Z,100554.08
2019-03-12T14:30:04.773Z,100539.74
2019-03-12T14:32:35.782Z,100522.51
2019-03-12T14:35:08.036Z,100508.89
2019-03-12T14:37:38.174Z,100499.70
2019-03-12T14:40:08.317Z,100480.23
2019-03-12T14:42:40.613Z,100459.95
2019-03-12T14:45:12.521Z,100459.62
2019-03-12T14:47:44.078Z,100452.61
2019-03-12T14:50:15.011Z,100443.41
2019-03-12T14:52:48.508Z,100440.42
2019-03-12T14:55:18.810Z,100456.75
2019-03-12T14:57:49.019Z,100442.66
2019-03-12T15:00:23.564Z,100426.52
2019-03-12T15:02:54.228Z,100413.31
2019-03-12T15:05:24.534Z,100406.87
2019-03-12T15:07:59.461Z,100400.89
2019-03-12T15:10:30.582Z,100386.25
2019-03-12T15:13:02.444Z,100379.59
2019-03-12T15:15:33.205Z,100372.70
2019-03-12T15:18:03.423Z,100366.44
2019-03-12T15:20:33.587Z,100348.77
2019-03-12T15:23:03.779Z,100349.53
2019-03-12T15:25:38.272Z,100343.84
2019-03-12T15:28:20.898Z,100339.45
2019-03-12T15:30:51.487Z,100338.47
2019-03-12T15:33:23.003Z,100331.36
2019-03-12T15:35:55.149Z,100324.23
2019-03-12T15:38:28.474Z,100316.45
2019-03-12T15:40:59.119Z,100309.71
2019-03-12T15:43:30.180Z,100295.16
2019-03-12T15:46:00.295Z,100281.20
2019-03-12T15:48:30.651Z,100281.23
2019-03-12T15:51:05.991Z,100271.63
2019-03-12T15:53:36.240Z,100266.97
2019-03-12T15:56:07.949Z,100262.84
2019-03-12T15:58:40.679Z,100249.16
2019-03-12T16:01:10.892Z,100235.67
2019-03-12T16:03:42.039Z,100231.67
2019-03-12T16:06:12.487Z,100213.16
2019-03-12T16:08:42.648Z,100217.25
2019-03-12T16:11:13.323Z,100205.83
2019-03-12T16:13:43.579Z,100198.62
2019-03-12T16:16:13.842Z,100190.25
2019-03-12T16:18:46.297Z,100190.26
2019-03-12T16:21:16.479Z,100184.45
2019-03-12T16:23:48.151Z,100170.09
2019-03-12T16:26:18.427Z,100163.22
2019-03-12T16:28:48.675Z,100167.65
2019-03-12T16:31:18.814Z,100158.95
2019-03-12T16:33:48.974Z,100141.09
2019-03-12T16:36:19.119Z,100139.44
2019-03-12T16:38:49.318Z,100133.59
2019-03-12T16:41:19.507Z,100129.50
2019-03-12T16:43:50.142Z,100125.66
2019-03-12T16:46:23.412Z,100107.80
2019-03-12T16:48:53.581Z,100107.64
2019-03-12T16:51:24.831Z,100087.56
2019-03-12T16:53:55.174Z,100078.03
2019-03-12T16:56:28.264Z,100068.27
2019-03-12T16:58:58.492Z,100054.47
2019-03-12T17:01:29.479Z,100055.78
2019-03-12T17:03:59.895Z,100046.54
2019-03-12T17:06:30.107Z,100038.28
2019-03-12T17:09:00.645Z,100041.81
2019-03-12T17:11:34.552Z,100022.98
2019-03-12T17:14:05.722Z,100021.36
2019-03-12T17:16:38.732Z,100017.36
2019-03-12T17:19:08.922Z,100002.50
2019-03-12T17:21:40.302Z,99990.23
2019-03-12T17:24:10.424Z,99991.16
2019-03-12T17:26:42.575Z,99973.20
2019-03-12T17:29:14.367Z,99964.86
2019-03-12T17:31:44.536Z,99955.28
2019-03-12T17:34:15.088Z,99956.50
2019-03-12T17:36:45.377Z,99946.55
2019-03-12T17:39:15.750Z,99946.33
2019-03-12T17:41:46.027Z,99934.96
2019-03-12T17:44:16.290Z,99913.46
2019-03-12T17:46:46.516Z,99924.57
2019-03-12T17:49:16.774Z,99910.82
2019-03-12T17:51:46.987Z,99894.31
2019-03-12T17:54:17.634Z,99904.78
2019-03-12T17:56:49.405Z,99891.23
2019-03-12T17:59:20.842Z,99889.63
2019-03-12T18:01:51.176Z,99877.28
2019-03-12T18:04:21.381Z,99868.52
2019-03-12T18:06:51.550Z,99854.30
2019-03-12T18:09:21.810Z,99842.26
2019-03-12T18:11:53.764Z,99836.67
2019-03-12T18:14:24.266Z,99835.66
2019-03-12T18:16:55.598Z,99829.23
2019-03-12T18:19:25.703Z,99832.08
2019-03-12T18:21:57.460Z,99832.38
2019-03-12T18:24:28.111Z,99824.83
2019-03-12T18:26:58.364Z,99834.20
2019-03-12T18:29:30.707Z,99825.21
2019-03-12T18:32:00.853Z,99823.55
2019-03-12T18:34:31.046Z,99829.23
2019-03-12T18:37:01.453Z,99823.22
2019-03-12T18:39:33.083Z,99819.98
2019-03-12T18:42:03.942Z,99829.73
2019-03-12T18:44:34.312Z,99810.31
2019-03-12T18:47:04.727Z,99801.60
2019-03-12T18:49:37.649Z,99791.84
2019-03-12T18:52:08.061Z,99777.28
2019-03-12T18:54:38.353Z,99784.30
2019-03-12T18:57:11.756Z,99778.84
2019-03-12T18:59:42.265Z,99773.89
2019-03-12T19:02:18.808Z,99760.78
2019-03-12T19:07:49.241Z,99727.32
2019-03-12T19:10:19.560Z,99728.41
2019-03-12T19:12:52.525Z,99729.11
2019-03-12T19:15:28.218Z,99733.39
2019-03-12T19:17:58.554Z,99716.33
2019-03-12T19:20:28.684Z,99698.56
2019-03-12T19:23:00.868Z,99695.34
2019-03-12T19:25:33.551Z,99693.59
2019-03-12T19:28:04.265Z,99681.02
2019-03-12T19:30:34.769Z,99677.05
2019-03-12T19:33:15.367Z,99676.13
2019-03-12T19:35:53.133Z,99649.97
2019-03-12T19:38:25.997Z,99652.40
2019-03-12T19:41:02.174Z,99646.11
2019-03-12T19:43:33.738Z,99629.33
2019-03-12T19:46:04.642Z,99626.05
2019-03-12T19:48:35.829Z,99606.15
2019-03-12T19:51:11.307Z,99595.39
2019-03-12T19:53:42.657Z,99600.56
2019-03-12T19:56:12.823Z,99592.16
2019-03-12T19:58:49.913Z,99589.48
2019-03-12T20:02:15.576Z,99578.44
2019-03-12T20:04:26.868Z,99574.17
2019-03-12T20:07:03.229Z,99557.48
2019-03-12T20:09:53.213Z,99551.53
2019-03-12T20:13:04.061Z,99555.48
2019-03-12T20:16:28.695Z,99530.23
2019-03-12T20:19:34.787Z,99526.66
2019-03-12T20:22:34.619Z,99535.00
2019-03-12T20:26:03.204Z,99509.33
2019-03-12T20:29:32.549Z,99524.70
2019-03-12T20:32:54.585Z,99530.81
2019-03-12T20:36:07.161Z,99509.73
2019-03-12T20:39:17.021Z,99503.52
2019-03-12T20:42:36.380Z,99491.34
2019-03-12T20:46:03.407Z,99490.02
2019-03-12T20:49:29.579Z,99495.11
2019-03-12T20:52:43.373Z,99490.63
2019-03-12T20:55:46.603Z,99487.09
2019-03-12T20:59:02.799Z,99470.70
2019-03-12T21:02:17.319Z,99468.48
2019-03-12T21:05:36.105Z,99448.81
2019-03-12T21:08:59.483Z,99437.17
2019-03-12T21:12:07.144Z,99441.50
2019-03-12T21:15:16.788Z,99436.98
2019-03-12T21:18:22.871Z,99430.82
2019-03-12T21:21:33.061Z,99394.67
2019-03-12T21:24:21.916Z,99415.50
2019-03-12T21:27:20.255Z,99410.94
2019-03-12T21:29:50.077Z,99407.83
2019-03-12T21:32:26.439Z,99401.17
2019-03-12T21:34:56.820Z,99399.36
2019-03-12T21:37:28.811Z,99406.75
2019-03-12T21:39:59.609Z,99408.98
2019-03-12T21:42:31.410Z,99385.73
2019-03-12T21:45:01.748Z,99379.92
2019-03-12T21:47:31.971Z,99376.02
2019-03-12T21:50:02.118Z,99370.91
2019-03-12T21:52:32.341Z,99371.03
2019-03-12T21:55:02.529Z,99372.34
2019-03-12T21:57:32.903Z,99373.03
2019-03-12T22:00:03.575Z,99354.16
2019-03-12T22:02:35.453Z,99355.56
2019-03-12T22:05:05.961Z,99356.69
2019-03-12T22:07:36.222Z,99351.72
2019-03-12T22:10:06.886Z,99329.69
2019-03-12T22:12:39.725Z,99328.72
2019-03-12T22:15:10.287Z,99315.17
2019-03-12T22:17:40.662Z,99331.80
2019-03-12T22:20:15.713Z,99337.61
2019-03-12T22:23:09.880Z,99336.17
2019-03-12T22:25:40.070Z,99344.04
2019-03-12T22:28:12.797Z,99332.33
2019-03-12T22:30:43.231Z,99342.59
2019-03-12T22:33:17.115Z,99341.69
2019-03-12T22:35:48.621Z,99357.23
2019-03-12T22:38:19.986Z,99354.84
2019-03-12T22:40:51.362Z,99364.33
2019-03-12T22:43:21.523Z,99351.30
2019-03-12T22:45:51.774Z,99338.95
2019-03-12T22:48:25.172Z,99335.70
2019-03-12T22:50:55.290Z,99332.77
2019-03-12T22:53:25.628Z,99323.63
2019-03-12T22:55:58.273Z,99322.92
2019-03-12T22:58:28.427Z,99315.80
2019-03-12T23:01:19.509Z,99312.63
2019-03-12T23:04:07.676Z,99305.06
2019-03-12T23:06:56.976Z,99302.11
2019-03-12T23:09:44.583Z,99310.73
2019-03-12T23:12:18.432Z,99306.19
2019-03-12T23:14:50.164Z,99301.32
2019-03-12T23:17:21.530Z,99308.88
2019-03-12T23:19:51.679Z,99319.33
2019-03-12T23:22:22.000Z,99318.02
2019-03-12T23:24:53.280Z,99315.34
2019-03-12T23:27:24.628Z,99327.75
2019-03-12T23:29:54.720Z,99336.47
2019-03-12T23:32:24.918Z,99338.14
2019-03-12T23:34:55.033Z,99346.68
2019-03-12T23:37:26.242Z,99368.98
2019-03-12T23:39:59.531Z,99387.83
2019-03-12T23:42:32.898Z,99418.33
2019-03-12T23:45:03.134Z,99467.02
2019-03-12T23:47:36.629Z,99492.86
2019-03-12T23:50:10.724Z,99497.19
2019-03-12T23:52:41.100Z,99486.86
2019-03-12T23:55:12.561Z,99497.55
2019-03-12T23:57:43.544Z,99505.63
